createdAt,value
2023-04-29T00:00:09.094Z,101663.94
2023-04-29T00:02:35.765Z,101674.72
2023-04-29T00:05:05.133Z,101670.81
2023-04-29T00:07:32.450Z,101670.53
2023-04-29T00:09:59.169Z,101670.28
2023-04-29T00:12:25.927Z,101677.38
2023-04-29T00:14:52.349Z,101674.72
2023-04-29T00:17:18.745Z,101676.63
2023-04-29T00:19:45.319Z,101683.72
2023-04-29T00:22:11.722Z,101682.13
2023-04-29T00:24:38.083Z,101682.09
2023-04-29T00:27:06.150Z,101687.38
2023-04-29T00:29:32.623Z,101682.91
2023-04-29T00:31:59.101Z,101686.38
2023-04-29T00:34:25.539Z,101700.31
2023-04-29T00:36:51.973Z,101698.72
2023-04-29T00:39:18.435Z,101696.91
2023-04-29T00:41:44.845Z,101695.31
2023-04-29T00:44:11.537Z,101697.44
2023-04-29T00:46:38.237Z,101699.00
2023-04-29T00:49:04.843Z,101706.41
2023-04-29T00:51:31.367Z,101714.06
2023-04-29T00:53:57.804Z,101711.97
2023-04-29T00:56:24.581Z,101713.59
2023-04-29T00:58:52.541Z,101713.53
2023-04-29T01:01:20.164Z,101725.97
2023-04-29T01:03:46.885Z,101728.03
2023-04-29T01:06:47.621Z,101728.31
2023-04-29T01:09:43.917Z,101731.69
2023-04-29T01:12:43.623Z,101728.56
2023-04-29T01:15:23.225Z,101730.94
2023-04-29T01:18:12.824Z,101737.53
2023-04-29T01:20:39.872Z,101743.56
2023-04-29T01:23:06.281Z,101739.59
2023-04-29T01:25:32.764Z,101741.97
2023-04-29T01:28:16.992Z,101744.63
2023-04-29T01:31:06.652Z,101743.00
2023-04-29T01:33:40.918Z,101750.13
2023-04-29T01:36:14.001Z,101747.75
2023-04-29T01:39:00.735Z,101760.13
2023-04-29T01:41:58.907Z,101748.25
2023-04-29T01:44:29.076Z,101759.56
2023-04-29T01:46:56.436Z,101766.72
2023-04-29T01:49:26.724Z,101766.22
2023-04-29T01:51:53.430Z,101766.53
2023-04-29T01:54:20.984Z,101775.75
2023-04-29T01:56:47.450Z,101771.78
2023-04-29T01:59:13.831Z,101774.97
2023-04-29T02:01:40.244Z,101771.31
2023-04-29T02:04:06.866Z,101775.25
2023-04-29T02:06:33.543Z,101779.44
2023-04-29T02:08:59.997Z,101783.13
2023-04-29T02:11:26.574Z,101770.97
2023-04-29T02:13:54.638Z,101782.03
2023-04-29T02:16:21.156Z,101786.53
2023-04-29T02:18:47.613Z,101782.53
2023-04-29T02:21:13.977Z,101789.41
2023-04-29T02:23:40.661Z,101796.78
2023-04-29T02:26:07.248Z,101799.69
2023-04-29T02:28:35.023Z,101805.50
2023-04-29T02:31:01.685Z,101803.13
2023-04-29T02:33:28.116Z,101807.03
2023-04-29T02:35:54.539Z,101812.88
2023-04-29T02:38:21.003Z,101810.25
2023-04-29T02:40:47.707Z,101815.50
2023-04-29T02:43:14.308Z,101816.06
2023-04-29T02:45:40.943Z,101821.06
2023-04-29T02:48:07.591Z,101821.84
2023-04-29T02:50:34.132Z,101826.09
2023-04-29T02:53:00.556Z,101826.34
2023-04-29T02:55:27.027Z,101824.75
2023-04-29T02:57:53.513Z,101831.84
2023-04-29T03:00:20.624Z,101828.38
2023-04-29T03:02:47.116Z,101830.75
2023-04-29T03:05:13.691Z,101840.25
2023-04-29T03:07:40.093Z,101843.88
2023-04-29T03:10:06.956Z,101845.78
2023-04-29T03:12:34.755Z,101848.94
2023-04-29T03:15:01.254Z,101857.91
2023-04-29T03:17:27.757Z,101854.47
2023-04-29T03:19:54.604Z,101861.88
2023-04-29T03:22:21.194Z,101865.00
2023-04-29T03:24:47.615Z,101855.75
2023-04-29T03:27:14.158Z,101860.25
2023-04-29T03:29:40.584Z,101866.31
2023-04-29T03:32:07.297Z,101867.03
2023-04-29T03:34:34.304Z,101862.59
2023-04-29T03:37:01.316Z,101873.91
2023-04-29T03:39:34.448Z,101868.41
2023-04-29T03:42:01.435Z,101872.84
2023-04-29T03:44:29.158Z,101873.19
2023-04-29T03:46:55.722Z,101874.22
2023-04-29T03:49:22.637Z,101867.91
2023-04-29T03:51:49.149Z,101872.91
2023-04-29T03:54:15.620Z,101874.22
2023-04-29T03:56:42.013Z,101877.38
2023-04-29T03:59:08.399Z,101883.44
2023-04-29T04:01:34.927Z,101884.56
2023-04-29T04:04:01.663Z,101887.97
2023-04-29T04:06:28.199Z,101889.34
2023-04-29T04:08:54.577Z,101892.22
2023-04-29T04:11:20.960Z,101891.47
2023-04-29T04:13:47.366Z,101884.13
2023-04-29T04:16:13.807Z,101884.63
2023-04-29T04:18:40.371Z,101890.91
2023-04-29T04:21:11.162Z,101893.31
2023-04-29T04:23:40.411Z,101901.44
2023-04-29T04:26:07.217Z,101899.06
2023-04-29T04:28:33.698Z,101909.91
2023-04-29T04:31:00.176Z,101908.81
2023-04-29T04:33:27.387Z,101917.22
2023-04-29T04:35:53.902Z,101916.19
2023-04-29T04:38:20.283Z,101916.66
2023-04-29T04:40:46.992Z,101926.41
2023-04-29T04:43:13.372Z,101920.03
2023-04-29T04:45:39.782Z,101929.28
2023-04-29T04:48:06.871Z,101930.81
2023-04-29T04:50:33.361Z,101930.03
2023-04-29T04:52:59.776Z,101929.97
2023-04-29T04:55:26.280Z,101944.97
2023-04-29T04:57:52.701Z,101940.75
2023-04-29T05:00:19.369Z,101941.16
2023-04-29T05:02:45.927Z,101948.16
2023-04-29T05:05:12.480Z,101958.69
2023-04-29T05:07:38.860Z,101962.34
2023-04-29T05:10:06.601Z,101968.19
2023-04-29T05:12:35.103Z,101978.50
2023-04-29T05:15:02.119Z,101969.78
2023-04-29T05:17:28.735Z,101969.53
2023-04-29T05:19:55.171Z,101974.56
2023-04-29T05:22:21.607Z,101973.28
2023-04-29T05:24:52.702Z,101984.63
2023-04-29T05:27:19.273Z,101981.75
2023-04-29T05:29:45.656Z,101985.16
2023-04-29T05:32:13.489Z,101983.63
2023-04-29T05:34:40.360Z,101981.06
2023-04-29T05:37:06.751Z,101985.00
2023-04-29T05:39:33.190Z,101983.69
2023-04-29T05:41:59.844Z,101984.50
2023-04-29T05:44:26.346Z,101992.53
2023-04-29T05:46:52.751Z,101990.69
2023-04-29T05:49:19.158Z,102001.03
2023-04-29T05:51:45.664Z,102000.31
2023-04-29T05:54:12.092Z,102003.25
2023-04-29T05:56:38.559Z,102003.31
2023-04-29T05:59:04.978Z,102002.47
2023-04-29T06:01:31.413Z,102007.75
2023-04-29T06:03:57.929Z,102018.59
2023-04-29T06:06:24.578Z,102019.63
2023-04-29T06:08:51.293Z,102027.81
2023-04-29T06:11:17.736Z,102035.31
2023-04-29T06:13:44.513Z,102035.78
2023-04-29T06:16:12.004Z,102038.97
2023-04-29T06:18:38.447Z,102031.25
2023-04-29T06:21:05.334Z,102039.72
2023-04-29T06:23:32.734Z,102040.03
2023-04-29T06:25:59.152Z,102049.84
2023-04-29T06:28:25.538Z,102048.00
2023-04-29T06:30:51.991Z,102054.78
2023-04-29T06:33:18.429Z,102059.03
2023-04-29T06:35:44.797Z,102054.00
2023-04-29T06:38:11.298Z,102063.28
2023-04-29T06:40:37.691Z,102067.97
2023-04-29T06:43:04.530Z,102067.50
2023-04-29T06:45:31.525Z,102072.03
2023-04-29T06:47:58.010Z,102076.34
2023-04-29T06:50:24.421Z,102078.72
2023-04-29T06:52:50.937Z,102079.59
2023-04-29T06:55:17.852Z,102074.59
2023-04-29T06:57:44.269Z,102085.56
2023-04-29T07:00:11.168Z,102088.59
2023-04-29T07:02:39.161Z,102097.03
2023-04-29T07:05:06.466Z,102098.09
2023-04-29T07:07:33.065Z,102096.00
2023-04-29T07:09:59.498Z,102108.53
2023-04-29T07:12:26.522Z,102117.78
2023-04-29T07:14:53.255Z,102105.63
2023-04-29T07:17:20.699Z,102107.47
2023-04-29T07:19:47.215Z,102105.13
2023-04-29T07:22:13.706Z,102113.69
2023-04-29T07:24:40.092Z,102123.81
2023-04-29T07:27:06.880Z,102127.28
2023-04-29T07:29:33.497Z,102135.47
2023-04-29T07:31:59.954Z,102135.94
2023-04-29T07:34:26.400Z,102132.81
2023-04-29T07:36:53.132Z,102137.56
2023-04-29T07:39:19.558Z,102127.19
2023-04-29T07:41:46.006Z,102142.22
2023-04-29T07:44:12.460Z,102142.78
2023-04-29T07:46:38.960Z,102140.41
2023-04-29T07:49:06.908Z,102138.34
2023-04-29T07:51:33.466Z,102141.34
2023-04-29T07:53:59.848Z,102145.75
2023-04-29T07:56:26.353Z,102143.69
2023-04-29T07:58:52.786Z,102147.88
2023-04-29T08:01:19.145Z,102142.25
2023-04-29T08:03:45.856Z,102153.22
2023-04-29T08:06:12.640Z,102155.72
2023-04-29T08:08:39.147Z,102159.72
2023-04-29T08:11:06.649Z,102155.97
2023-04-29T08:13:33.165Z,102152.69
2023-04-29T08:15:59.589Z,102167.50
2023-04-29T08:18:26.279Z,102170.13
2023-04-29T08:20:53.222Z,102166.41
2023-04-29T08:23:19.702Z,102149.94
2023-04-29T08:25:46.271Z,102170.28
2023-04-29T08:28:13.061Z,102166.03
2023-04-29T08:30:41.047Z,102160.13
2023-04-29T08:33:08.284Z,102170.00
2023-04-29T08:35:37.518Z,102179.34
2023-04-29T08:38:05.868Z,102186.34
2023-04-29T08:40:50.431Z,102183.22
2023-04-29T08:43:17.105Z,102186.19
2023-04-29T08:45:44.034Z,102180.63
2023-04-29T08:48:10.775Z,102173.66
2023-04-29T08:50:40.556Z,102187.56
2023-04-29T08:53:11.022Z,102193.94
2023-04-29T08:55:42.908Z,102185.56
2023-04-29T08:58:10.762Z,102194.25
2023-04-29T09:00:37.430Z,102207.69
2023-04-29T09:03:21.118Z,102210.84
2023-04-29T09:05:50.519Z,102213.41
2023-04-29T09:08:17.175Z,102212.72
2023-04-29T09:10:43.626Z,102216.06
2023-04-29T09:13:23.214Z,102222.19
2023-04-29T09:15:49.644Z,102216.16
2023-04-29T09:18:51.348Z,102228.25
2023-04-29T09:21:25.993Z,102228.25
2023-04-29T09:24:02.823Z,102227.59
2023-04-29T09:26:55.407Z,102229.47
2023-04-29T09:29:22.308Z,102232.13
2023-04-29T09:31:49.542Z,102231.06
2023-04-29T09:34:16.456Z,102238.44
2023-04-29T09:36:48.503Z,102224.69
2023-04-29T09:39:22.360Z,102231.31
2023-04-29T09:41:54.987Z,102240.31
2023-04-29T09:44:23.326Z,102218.91
2023-04-29T09:47:07.826Z,102239.56
2023-04-29T09:49:40.640Z,102248.16
2023-04-29T09:52:11.654Z,102241.72
2023-04-29T09:54:39.813Z,102246.41
2023-04-29T09:57:08.920Z,102237.34
2023-04-29T09:59:37.450Z,102247.06
2023-04-29T10:02:21.026Z,102251.88
2023-04-29T10:04:51.842Z,102247.31
2023-04-29T10:07:19.038Z,102253.81
2023-04-29T10:09:47.362Z,102250.81
2023-04-29T10:12:18.762Z,102247.53
2023-04-29T10:14:58.702Z,102260.78
2023-04-29T10:17:46.493Z,102249.16
2023-04-29T10:20:26.967Z,102259.72
2023-04-29T10:22:56.381Z,102255.50
2023-04-29T10:25:24.670Z,102258.16
2023-04-29T10:27:54.422Z,102263.94
2023-04-29T10:30:21.922Z,102269.53
2023-04-29T10:32:51.665Z,102267.72
2023-04-29T10:35:20.473Z,102269.44
2023-04-29T10:37:48.734Z,102261.50
2023-04-29T10:40:36.329Z,102262.34
2023-04-29T10:43:02.693Z,102267.84
2023-04-29T10:45:35.845Z,102263.69
2023-04-29T10:48:02.713Z,102270.16
2023-04-29T10:50:33.464Z,102270.47
2023-04-29T10:53:04.017Z,102269.16
2023-04-29T10:55:31.546Z,102273.94
2023-04-29T10:57:58.059Z,102273.38
2023-04-29T11:00:28.697Z,102257.16
2023-04-29T11:02:56.309Z,102262.72
2023-04-29T11:05:33.843Z,102263.75
2023-04-29T11:08:16.252Z,102263.53
2023-04-29T11:10:43.601Z,102261.38
2023-04-29T11:13:27.084Z,102259.72
2023-04-29T11:15:54.583Z,102259.66
2023-04-29T11:18:21.078Z,102264.66
2023-04-29T11:21:14.073Z,102262.72
2023-04-29T11:23:45.124Z,102263.72
2023-04-29T11:26:11.612Z,102260.47
2023-04-29T11:28:39.263Z,102264.09
2023-04-29T11:31:07.535Z,102268.50
2023-04-29T11:33:34.187Z,102276.44
2023-04-29T11:36:00.690Z,102272.91
2023-04-29T11:38:28.082Z,102265.41
2023-04-29T11:40:58.250Z,102266.94
2023-04-29T11:43:25.030Z,102273.81
2023-04-29T11:45:52.826Z,102270.09
2023-04-29T11:48:26.299Z,102263.47
2023-04-29T11:50:57.740Z,102272.31
2023-04-29T11:53:25.906Z,102275.56
2023-04-29T11:55:55.624Z,102276.72
2023-04-29T11:58:22.758Z,102274.03
2023-04-29T12:00:49.294Z,102283.38
2023-04-29T12:03:17.233Z,102284.34
2023-04-29T12:05:54.533Z,102280.47
2023-04-29T12:08:22.258Z,102290.38
2023-04-29T12:10:49.471Z,102285.53
2023-04-29T12:13:17.524Z,102274.56
2023-04-29T12:15:45.572Z,102276.53
2023-04-29T12:18:12.623Z,102278.75
2023-04-29T12:20:39.289Z,102282.03
2023-04-29T12:23:16.215Z,102292.44
2023-04-29T12:25:42.851Z,102285.06
2023-04-29T12:28:15.947Z,102297.63
2023-04-29T12:30:45.175Z,102296.34
2023-04-29T12:33:16.158Z,102298.22
2023-04-29T12:35:42.523Z,102289.94
2023-04-29T12:38:09.412Z,102288.44
2023-04-29T12:40:35.871Z,102291.59
2023-04-29T12:43:09.179Z,102288.34
2023-04-29T12:45:35.585Z,102285.28
2023-04-29T12:48:05.634Z,102293.94
2023-04-29T12:50:37.751Z,102290.44
2023-04-29T12:53:06.389Z,102287.88
2023-04-29T12:55:37.337Z,102293.97
2023-04-29T12:58:04.971Z,102295.09
2023-04-29T13:00:32.275Z,102296.09
2023-04-29T13:02:58.909Z,102293.22
2023-04-29T13:05:25.469Z,102286.00
2023-04-29T13:07:52.378Z,102296.19
2023-04-29T13:10:18.774Z,102289.81
2023-04-29T13:12:45.286Z,102288.13
2023-04-29T13:15:12.126Z,102281.53
2023-04-29T13:17:38.921Z,102291.03
2023-04-29T13:20:06.532Z,102289.13
2023-04-29T13:22:33.107Z,102292.78
2023-04-29T13:24:59.539Z,102291.81
2023-04-29T13:27:25.945Z,102291.47
2023-04-29T13:29:52.427Z,102288.47
2023-04-29T13:32:21.377Z,102299.84
2023-04-29T13:34:47.944Z,102308.06
2023-04-29T13:37:14.315Z,102296.84
2023-04-29T13:39:44.367Z,102299.53
2023-04-29T13:42:15.320Z,102304.44
2023-04-29T13:44:51.906Z,102300.66
2023-04-29T13:47:25.023Z,102297.03
2023-04-29T13:55:14.915Z,102302.88
2023-04-29T14:00:30.954Z,102304.41
2023-04-29T14:05:25.769Z,102295.13
2023-04-29T14:07:52.351Z,102303.00
2023-04-29T14:10:18.866Z,102307.25
2023-04-29T14:12:45.589Z,102315.97
2023-04-29T14:15:12.120Z,102316.91
2023-04-29T14:17:38.607Z,102326.31
2023-04-29T14:20:05.680Z,102322.50
2023-04-29T14:22:32.252Z,102331.28
2023-04-29T14:24:58.617Z,102335.31
2023-04-29T14:27:24.987Z,102329.69
2023-04-29T14:29:51.369Z,102332.25
2023-04-29T14:32:17.786Z,102337.25
2023-04-29T14:34:44.195Z,102342.47
2023-04-29T14:37:11.226Z,102346.66
2023-04-29T14:39:38.005Z,102340.03
2023-04-29T14:42:04.615Z,102347.66
2023-04-29T14:44:31.073Z,102345.38
2023-04-29T14:46:57.487Z,102346.16
2023-04-29T14:49:23.915Z,102352.91
2023-04-29T14:51:50.671Z,102349.44
2023-04-29T14:54:17.730Z,102352.84
2023-04-29T14:56:44.152Z,102349.97
2023-04-29T14:59:11.024Z,102346.69
2023-04-29T15:01:38.461Z,102347.97
2023-04-29T15:04:05.590Z,102351.25
2023-04-29T15:06:32.379Z,102352.34
2023-04-29T15:08:58.855Z,102351.56
2023-04-29T15:11:26.040Z,102349.09
2023-04-29T15:13:52.491Z,102352.34
2023-04-29T15:16:19.370Z,102353.22
2023-04-29T15:18:46.428Z,102350.81
2023-04-29T15:21:12.925Z,102345.47
2023-04-29T15:23:39.507Z,102353.19
2023-04-29T15:26:07.069Z,102361.44
2023-04-29T15:28:33.550Z,102368.91
2023-04-29T15:31:01.797Z,102366.81
2023-04-29T15:33:28.208Z,102372.00
2023-04-29T15:35:55.908Z,102370.53
2023-04-29T15:38:22.326Z,102362.78
2023-04-29T15:40:48.766Z,102360.44
2023-04-29T15:43:15.492Z,102368.16
2023-04-29T15:45:42.472Z,102365.44
2023-04-29T15:48:08.988Z,102365.00
2023-04-29T15:50:35.498Z,102369.34
2023-04-29T15:53:01.928Z,102369.97
2023-04-29T15:55:28.494Z,102371.44
2023-04-29T15:57:54.907Z,102373.84
2023-04-29T16:00:21.310Z,102378.28
2023-04-29T16:02:47.766Z,102376.06
2023-04-29T16:05:14.262Z,102383.41
2023-04-29T16:07:40.666Z,102382.41
2023-04-29T16:10:07.316Z,102386.94
2023-04-29T16:12:33.903Z,102391.19
2023-04-29T16:15:00.283Z,102394.31
2023-04-29T16:17:27.498Z,102395.19
2023-04-29T16:19:54.247Z,102396.44
2023-04-29T16:22:21.111Z,102394.97
2023-04-29T16:24:49.345Z,102401.81
2023-04-29T16:27:16.301Z,102399.13
2023-04-29T16:29:42.868Z,102395.38
2023-04-29T16:32:09.229Z,102409.09
2023-04-29T16:34:35.654Z,102400.94
2023-04-29T16:37:02.171Z,102403.38
2023-04-29T16:39:28.516Z,102409.31
2023-04-29T16:41:55.023Z,102402.00
2023-04-29T16:44:21.560Z,102411.13
2023-04-29T16:46:47.969Z,102406.63
2023-04-29T16:49:15.503Z,102415.38
2023-04-29T16:51:41.898Z,102408.88
2023-04-29T16:54:08.391Z,102419.69
2023-04-29T16:56:34.842Z,102429.06
2023-04-29T16:59:01.284Z,102419.22
2023-04-29T17:01:28.760Z,102415.84
2023-04-29T17:03:55.484Z,102421.28
2023-04-29T17:06:21.894Z,102415.75
2023-04-29T17:08:51.340Z,102416.84
2023-04-29T17:11:18.273Z,102420.63
2023-04-29T17:13:44.934Z,102417.75
2023-04-29T17:16:11.501Z,102430.22
2023-04-29T17:18:37.962Z,102428.09
2023-04-29T17:21:04.532Z,102427.63
2023-04-29T17:23:31.059Z,102428.97
2023-04-29T17:25:57.529Z,102435.69
2023-04-29T17:28:24.269Z,102437.88
2023-04-29T17:30:51.746Z,102436.28
2023-04-29T17:33:18.218Z,102423.00
2023-04-29T17:35:45.240Z,102426.75
2023-04-29T17:38:12.059Z,102427.53
2023-04-29T17:40:38.575Z,102418.22
2023-04-29T17:43:04.933Z,102421.13
2023-04-29T17:45:31.619Z,102421.94
2023-04-29T17:47:58.162Z,102418.44
2023-04-29T17:50:24.657Z,102425.34
2023-04-29T17:52:51.135Z,102417.91
2023-04-29T17:55:17.664Z,102423.69
2023-04-29T17:57:44.170Z,102422.34
2023-04-29T18:00:11.157Z,102426.81
2023-04-29T18:02:37.756Z,102424.19
2023-04-29T18:05:04.455Z,102426.03
2023-04-29T18:07:30.926Z,102433.72
2023-04-29T18:09:57.723Z,102430.28
2023-04-29T18:12:25.087Z,102429.97
2023-04-29T18:14:56.280Z,102418.25
2023-04-29T18:17:23.183Z,102431.72
2023-04-29T18:19:49.906Z,102434.88
2023-04-29T18:22:16.590Z,102431.38
2023-04-29T18:24:43.287Z,102429.19
2023-04-29T18:27:09.754Z,102439.28
2023-04-29T18:29:36.160Z,102434.78
2023-04-29T18:32:03.182Z,102434.50
2023-04-29T18:34:30.704Z,102441.34
2023-04-29T18:36:57.155Z,102439.72
2023-04-29T18:39:23.552Z,102448.47
2023-04-29T18:41:50.018Z,102451.63
2023-04-29T18:44:16.455Z,102444.16
2023-04-29T18:46:42.977Z,102458.72
2023-04-29T18:49:15.481Z,102459.19
2023-04-29T18:51:46.374Z,102460.97
2023-04-29T18:54:17.755Z,102465.69
2023-04-29T18:56:46.588Z,102458.69
2023-04-29T18:59:15.857Z,102465.25
2023-04-29T19:01:43.139Z,102466.25
2023-04-29T19:04:10.212Z,102461.16
2023-04-29T19:06:37.005Z,102468.06
2023-04-29T19:09:03.825Z,102473.00
2023-04-29T19:11:30.259Z,102478.31
2023-04-29T19:13:56.716Z,102477.22
2023-04-29T19:16:23.816Z,102476.19
2023-04-29T19:18:50.477Z,102476.44
2023-04-29T19:21:18.216Z,102479.22
2023-04-29T19:23:44.684Z,102480.47
2023-04-29T19:26:11.206Z,102486.84
2023-04-29T19:28:37.651Z,102484.44
2023-04-29T19:31:04.289Z,102489.91
2023-04-29T19:33:30.967Z,102492.50
2023-04-29T19:35:57.488Z,102474.97
2023-04-29T19:38:24.262Z,102490.59
2023-04-29T19:40:50.716Z,102486.13
2023-04-29T19:43:17.874Z,102487.94
2023-04-29T19:45:44.598Z,102490.88
2023-04-29T19:48:11.335Z,102492.75
2023-04-29T19:50:38.559Z,102500.44
2023-04-29T19:53:04.947Z,102499.81
2023-04-29T19:55:31.343Z,102505.84
2023-04-29T19:57:58.449Z,102511.63
2023-04-29T20:00:24.894Z,102513.66
2023-04-29T20:02:52.194Z,102514.38
2023-04-29T20:05:19.615Z,102511.66
2023-04-29T20:07:46.065Z,102505.59
2023-04-29T20:10:12.629Z,102515.84
2023-04-29T20:12:40.367Z,102513.31
2023-04-29T20:15:08.009Z,102510.59
2023-04-29T20:17:34.592Z,102511.88
2023-04-29T20:20:02.311Z,102516.03
2023-04-29T20:22:29.310Z,102523.91
2023-04-29T20:24:55.690Z,102521.09
2023-04-29T20:27:22.290Z,102530.06
2023-04-29T20:29:48.726Z,102526.94
2023-04-29T20:32:15.191Z,102523.28
2023-04-29T20:34:41.842Z,102527.19
2023-04-29T20:37:08.804Z,102527.25
2023-04-29T20:39:35.364Z,102529.09
2023-04-29T20:42:03.073Z,102532.31
2023-04-29T20:44:29.963Z,102530.38
2023-04-29T20:46:56.391Z,102536.41
2023-04-29T20:49:22.856Z,102544.78
2023-04-29T20:51:49.279Z,102540.00
2023-04-29T20:54:15.684Z,102535.75
2023-04-29T20:56:42.158Z,102542.06
2023-04-29T20:59:08.562Z,102535.66
2023-04-29T21:01:36.943Z,102538.81
2023-04-29T21:04:04.980Z,102538.94
2023-04-29T21:06:32.067Z,102544.22
2023-04-29T21:08:58.607Z,102550.69
2023-04-29T21:11:25.079Z,102545.66
2023-04-29T21:13:51.759Z,102545.41
2023-04-29T21:16:19.020Z,102544.69
2023-04-29T21:18:45.632Z,102542.84
2023-04-29T21:21:12.435Z,102545.19
2023-04-29T21:23:39.086Z,102540.38
2023-04-29T21:26:05.444Z,102547.16
2023-04-29T21:28:31.935Z,102541.25
2023-04-29T21:30:58.636Z,102553.63
2023-04-29T21:33:25.102Z,102549.63
2023-04-29T21:35:51.832Z,102547.78
2023-04-29T21:38:18.616Z,102556.38
2023-04-29T21:40:47.228Z,102554.00
2023-04-29T21:43:14.533Z,102549.75
2023-04-29T21:45:41.568Z,102549.75
2023-04-29T21:48:14.912Z,102550.53
2023-04-29T21:50:42.227Z,102553.41
2023-04-29T21:53:08.610Z,102552.63
2023-04-29T21:55:35.174Z,102559.50
2023-04-29T21:58:01.632Z,102556.28
2023-04-29T22:00:35.982Z,102563.41
2023-04-29T22:03:03.616Z,102550.69
2023-04-29T22:05:30.556Z,102540.94
2023-04-29T22:08:00.382Z,102554.38
2023-04-29T22:10:26.900Z,102553.00
2023-04-29T22:12:53.313Z,102560.13
2023-04-29T22:15:28.147Z,102555.88
2023-04-29T22:17:55.504Z,102559.78
2023-04-29T22:20:21.934Z,102553.72
2023-04-29T22:22:48.300Z,102553.72
2023-04-29T22:25:14.672Z,102552.66
2023-04-29T22:27:41.130Z,102548.91
2023-04-29T22:30:08.244Z,102551.78
2023-04-29T22:32:34.784Z,102557.53
2023-04-29T22:35:01.467Z,102555.91
2023-04-29T22:37:27.917Z,102562.94
2023-04-29T22:39:54.640Z,102558.69
2023-04-29T22:42:21.300Z,102563.38
2023-04-29T22:44:47.646Z,102560.19
2023-04-29T22:47:14.182Z,102560.66
2023-04-29T22:49:40.951Z,102565.38
2023-04-29T22:52:07.459Z,102564.81
2023-04-29T22:54:33.847Z,102571.22
2023-04-29T22:57:00.219Z,102563.94
2023-04-29T22:59:26.622Z,102570.69
2023-04-29T23:01:53.087Z,102569.34
2023-04-29T23:04:20.207Z,102578.25
2023-04-29T23:06:46.685Z,102568.63
2023-04-29T23:09:13.186Z,102572.22
2023-04-29T23:11:39.619Z,102569.47
2023-04-29T23:14:06.190Z,102570.59
2023-04-29T23:16:32.925Z,102571.88
2023-04-29T23:18:59.521Z,102577.59
2023-04-29T23:21:27.102Z,102574.75
2023-04-29T23:23:54.054Z,102570.50
2023-04-29T23:26:20.795Z,102582.63
2023-04-29T23:28:47.220Z,102576.56
2023-04-29T23:31:13.701Z,102574.16
2023-04-29T23:33:40.138Z,102584.13
2023-04-29T23:36:06.595Z,102577.47
2023-04-29T23:38:33.049Z,102579.31
2023-04-29T23:40:59.472Z,102588.81
2023-04-29T23:43:25.974Z,102591.91
2023-04-29T23:45:52.798Z,102592.13
2023-04-29T23:48:19.263Z,102585.50
2023-04-29T23:50:47.143Z,102586.75
2023-04-29T23:53:13.600Z,102585.16
2023-04-29T23:55:40.064Z,102591.88
2023-04-29T23:58:07.486Z,102600.63
